createdAt,value
2019-01-17T00:00:25.541Z,7.97
2019-01-17T00:01:14.959Z,7.80
2019-01-17T00:02:08.095Z,7.35
2019-01-17T00:03:09.416Z,7.12
2019-01-17T00:04:20.002Z,7.37
2019-01-17T00:05:30.857Z,7.28
2019-01-17T00:06:35.645Z,7.22
2019-01-17T00:07:43.173Z,7.40
2019-01-17T00:08:41.968Z,7.85
2019-01-17T00:09:46.756Z,6.95
2019-01-17T00:10:29.854Z,8.30
2019-01-17T00:11:25.268Z,7.65
2019-01-17T00:12:23.659Z,7.65
2019-01-17T00:13:15.017Z,7.50
2019-01-17T00:14:00.293Z,6.80
2019-01-17T00:14:51.915Z,7.97
2019-01-17T00:15:47.099Z,7.33
2019-01-17T00:16:29.382Z,7.60
2019-01-17T00:17:27.343Z,7.80
2019-01-17T00:18:35.088Z,7.58
2019-01-17T00:19:40.076Z,7.67
2019-01-17T00:20:41.921Z,7.10
2019-01-17T00:21:37.118Z,7.55
2019-01-17T00:22:35.609Z,7.50
2019-01-17T00:23:25.440Z,7.30
2019-01-17T00:24:18.154Z,7.25
2019-01-17T00:25:13.739Z,7.45
2019-01-17T00:26:15.629Z,6.95
2019-01-17T00:27:17.109Z,7.20
2019-01-17T00:28:24.728Z,7.95
2019-01-17T00:29:12.480Z,7.58
2019-01-17T00:29:57.996Z,6.75
2019-01-17T00:30:51.122Z,6.78
2019-01-17T00:31:31.749Z,6.72
2019-01-17T00:32:17.848Z,7.05
2019-01-17T00:33:14.792Z,7.10
2019-01-17T00:34:22.591Z,7.47
2019-01-17T00:35:20.916Z,6.37
2019-01-17T00:36:13.633Z,7.40
2019-01-17T00:37:21.117Z,6.75
2019-01-17T00:38:19.528Z,7.35
2019-01-17T00:39:17.887Z,7.22
2019-01-17T00:40:13.300Z,7.17
2019-01-17T00:40:58.690Z,6.35
2019-01-17T00:41:47.597Z,7.97
2019-01-17T00:42:38.752Z,7.10
2019-01-17T00:43:40.757Z,7.85
2019-01-17T00:44:40.624Z,6.95
2019-01-17T00:45:35.898Z,6.22
2019-01-17T00:46:28.680Z,6.65
2019-01-17T00:47:23.872Z,6.95
2019-01-17T00:48:11.485Z,6.67
2019-01-17T00:49:04.158Z,6.92
2019-01-17T00:49:55.534Z,7.10
2019-01-17T00:50:46.892Z,7.55
2019-01-17T00:51:39.657Z,6.67
2019-01-17T00:52:29.940Z,6.83
2019-01-17T00:53:20.038Z,6.70
2019-01-17T00:54:11.300Z,6.10
2019-01-17T00:55:02.381Z,7.22
2019-01-17T00:55:55.001Z,7.03
2019-01-17T00:56:46.683Z,7.15
2019-01-17T00:57:30.806Z,7.30
2019-01-17T00:58:21.029Z,6.78
2019-01-17T00:59:22.441Z,7.08
2019-01-17T01:00:27.024Z,7.75
2019-01-17T01:01:07.533Z,6.60
2019-01-17T01:01:58.715Z,6.42
2019-01-17T01:02:49.761Z,7.12
2019-01-17T01:03:42.102Z,6.47
2019-01-17T01:04:34.777Z,6.85
2019-01-17T01:05:25.858Z,7.22
2019-01-17T01:06:12.419Z,6.50
2019-01-17T01:07:05.156Z,7.47
2019-01-17T01:08:06.590Z,6.97
2019-01-17T01:08:59.735Z,7.28
2019-01-17T01:09:51.006Z,6.83
2019-01-17T01:10:49.267Z,6.10
2019-01-17T01:11:44.638Z,7.20
2019-01-17T01:12:38.358Z,6.35
2019-01-17T01:14:02.233Z,6.05
2019-01-17T01:15:03.697Z,6.65
2019-01-17T01:16:18.029Z,7.08
2019-01-17T01:17:11.349Z,6.53
2019-01-17T01:18:04.639Z,7.45
2019-01-17T01:19:03.354Z,6.08
2019-01-17T01:19:49.284Z,6.47
2019-01-17T01:20:50.609Z,6.28
2019-01-17T01:21:50.856Z,6.90
2019-01-17T01:23:01.401Z,5.97
2019-01-17T01:23:45.009Z,6.65
2019-01-17T01:24:37.834Z,6.60
2019-01-17T01:25:18.592Z,7.00
2019-01-17T01:26:15.740Z,7.05
2019-01-17T01:27:06.936Z,6.33
2019-01-17T01:28:08.515Z,6.30
2019-01-17T01:29:01.240Z,6.37
2019-01-17T01:29:52.236Z,6.15
2019-01-17T01:30:37.288Z,7.65
2019-01-17T01:31:24.587Z,6.50
2019-01-17T01:32:18.313Z,6.10
2019-01-17T01:33:09.689Z,5.95
2019-01-17T01:33:57.348Z,6.20
2019-01-17T01:34:37.598Z,6.60
2019-01-17T01:35:45.337Z,6.25
2019-01-17T01:36:40.749Z,6.20
2019-01-17T01:37:36.245Z,6.85
2019-01-17T01:38:27.821Z,6.12
2019-01-17T01:39:22.823Z,7.33
2019-01-17T01:40:18.441Z,6.40
2019-01-17T01:41:08.560Z,7.00
2019-01-17T01:41:56.073Z,7.08
2019-01-17T01:42:50.964Z,6.53
2019-01-17T01:43:38.766Z,6.47
2019-01-17T01:44:31.354Z,6.45
2019-01-17T01:45:20.347Z,6.67
2019-01-17T01:46:05.469Z,6.50
2019-01-17T01:47:03.068Z,6.40
2019-01-17T01:48:01.307Z,8.15
2019-01-17T01:48:53.948Z,6.03
2019-01-17T01:49:46.588Z,6.12
2019-01-17T01:50:34.034Z,5.70
2019-01-17T01:51:29.465Z,6.65
2019-01-17T01:52:26.568Z,6.90
2019-01-17T01:53:05.217Z,6.47
2019-01-17T01:53:39.974Z,6.75
2019-01-17T01:54:13.637Z,6.30
2019-01-17T01:54:47.072Z,6.58
2019-01-17T01:55:20.593Z,7.22
2019-01-17T01:55:54.054Z,6.05
2019-01-17T01:56:27.466Z,6.60
2019-01-17T01:57:01.027Z,7.10
2019-01-17T01:57:34.591Z,6.22
2019-01-17T01:58:08.055Z,6.80
2019-01-17T01:58:41.548Z,6.50
2019-01-17T01:59:14.977Z,6.17
2019-01-17T01:59:48.455Z,6.60
2019-01-17T02:00:21.921Z,7.00
2019-01-17T02:00:55.425Z,7.03
2019-01-17T02:01:28.907Z,6.30
2019-01-17T02:02:02.447Z,6.80
2019-01-17T02:02:35.855Z,6.45
2019-01-17T02:03:09.286Z,6.50
2019-01-17T02:03:42.771Z,6.50
2019-01-17T02:04:16.233Z,7.35
2019-01-17T02:04:49.795Z,6.33
2019-01-17T02:05:23.279Z,6.95
2019-01-17T02:05:56.788Z,7.45
2019-01-17T02:06:30.348Z,7.65
2019-01-17T02:07:04.125Z,6.42
2019-01-17T02:07:37.657Z,8.03
2019-01-17T02:08:11.141Z,7.35
2019-01-17T02:08:44.629Z,6.15
2019-01-17T02:09:18.081Z,6.75
2019-01-17T02:09:51.469Z,6.40
2019-01-17T02:10:24.934Z,7.33
2019-01-17T02:10:58.433Z,7.00
2019-01-17T02:11:31.961Z,6.97
2019-01-17T02:12:05.452Z,6.50
2019-01-17T02:12:38.865Z,7.17
2019-01-17T02:13:12.367Z,6.70
2019-01-17T02:13:46.033Z,6.65
2019-01-17T02:14:19.613Z,6.83
2019-01-17T02:14:53.161Z,7.62
2019-01-17T02:15:26.676Z,6.45
2019-01-17T02:16:00.147Z,6.30
2019-01-17T02:16:33.547Z,7.00
2019-01-17T02:17:07.207Z,7.08
2019-01-17T02:17:40.691Z,6.45
2019-01-17T02:18:14.185Z,6.83
2019-01-17T02:18:47.593Z,7.37
2019-01-17T02:19:21.095Z,6.92
2019-01-17T02:19:55.029Z,7.33
2019-01-17T02:20:28.531Z,6.28
2019-01-17T02:21:02.012Z,7.47
2019-01-17T02:21:35.582Z,6.70
2019-01-17T02:22:09.032Z,6.50
2019-01-17T02:22:42.505Z,6.15
2019-01-17T02:23:15.997Z,7.22
2019-01-17T02:23:49.481Z,6.40
2019-01-17T02:24:28.463Z,6.62
2019-01-17T02:24:58.283Z,7.12
2019-01-17T02:25:31.842Z,5.90
2019-01-17T02:26:05.331Z,6.45
2019-01-17T02:26:38.904Z,7.05
2019-01-17T02:27:12.412Z,6.40
2019-01-17T02:27:45.906Z,6.67
2019-01-17T02:28:19.293Z,6.42
2019-01-17T02:28:52.809Z,6.42
2019-01-17T02:29:26.337Z,6.95
2019-01-17T02:29:59.843Z,7.83
2019-01-17T02:30:33.361Z,7.40
2019-01-17T02:31:07.331Z,7.05
2019-01-17T02:31:40.896Z,6.95
2019-01-17T02:32:14.384Z,6.53
2019-01-17T02:32:47.906Z,6.85
2019-01-17T02:33:21.336Z,6.83
2019-01-17T02:33:54.806Z,6.53
2019-01-17T02:34:28.315Z,6.47
2019-01-17T02:35:01.927Z,7.87
2019-01-17T02:35:35.529Z,7.03
2019-01-17T02:36:09.124Z,6.70
2019-01-17T02:36:42.696Z,6.30
2019-01-17T02:37:16.105Z,7.17
2019-01-17T02:37:49.677Z,6.60
2019-01-17T02:38:23.228Z,7.20
2019-01-17T02:38:56.711Z,6.80
2019-01-17T02:39:30.236Z,6.30
2019-01-17T02:40:04.560Z,6.58
2019-01-17T02:40:38.116Z,6.53
2019-01-17T02:41:11.573Z,6.45
2019-01-17T02:41:45.112Z,6.90
2019-01-17T02:42:18.651Z,6.87
2019-01-17T02:42:52.067Z,7.22
2019-01-17T02:43:25.540Z,7.05
2019-01-17T02:43:58.938Z,7.97
2019-01-17T02:44:32.487Z,6.83
2019-01-17T02:45:06.404Z,7.20
2019-01-17T02:45:40.371Z,6.72
2019-01-17T02:46:13.862Z,6.50
2019-01-17T02:46:47.460Z,6.67
2019-01-17T02:47:21.030Z,7.17
2019-01-17T02:47:54.477Z,6.53
2019-01-17T02:48:27.944Z,6.70
2019-01-17T02:49:01.452Z,7.70
2019-01-17T02:49:34.922Z,7.60
2019-01-17T02:50:09.062Z,6.70
2019-01-17T02:50:42.536Z,7.05
2019-01-17T02:51:16.068Z,8.38
2019-01-17T02:51:49.635Z,6.50
2019-01-17T02:52:23.134Z,7.25
2019-01-17T02:52:56.729Z,6.50
2019-01-17T02:53:30.411Z,7.28
2019-01-17T02:54:03.947Z,6.58
2019-01-17T02:54:37.507Z,6.67
2019-01-17T02:55:11.496Z,7.05
2019-01-17T02:55:44.967Z,7.12
2019-01-17T02:56:18.487Z,7.33
2019-01-17T02:56:51.924Z,7.10
2019-01-17T02:57:25.493Z,7.92
2019-01-17T02:57:59.078Z,7.60
2019-01-17T02:58:32.588Z,7.70
2019-01-17T02:59:06.282Z,6.90
2019-01-17T02:59:39.791Z,6.70
2019-01-17T03:00:14.716Z,7.12
2019-01-17T03:00:48.220Z,7.75
2019-01-17T03:01:21.743Z,7.20
2019-01-17T03:01:55.141Z,6.95
2019-01-17T03:02:28.652Z,7.20
2019-01-17T03:03:02.211Z,6.17
2019-01-17T03:03:35.781Z,6.53
2019-01-17T03:04:09.186Z,7.25
2019-01-17T03:04:42.692Z,6.90
2019-01-17T03:05:16.239Z,6.80
2019-01-17T03:05:49.889Z,6.80
2019-01-17T03:06:23.374Z,6.35
2019-01-17T03:06:56.868Z,6.95
2019-01-17T03:07:30.362Z,8.23
2019-01-17T03:08:03.998Z,6.62
2019-01-17T03:08:37.537Z,6.80
2019-01-17T03:09:11.043Z,6.42
2019-01-17T03:09:44.574Z,7.08
2019-01-17T03:10:18.188Z,7.00
2019-01-17T03:10:51.772Z,6.75
2019-01-17T03:11:25.179Z,7.53
2019-01-17T03:11:58.757Z,6.85
2019-01-17T03:12:32.252Z,7.08
2019-01-17T03:13:05.833Z,6.83
2019-01-17T03:13:39.214Z,6.70
2019-01-17T03:14:12.639Z,6.75
2019-01-17T03:14:46.060Z,7.30
2019-01-17T03:15:19.627Z,6.80
2019-01-17T03:15:53.139Z,7.05
2019-01-17T03:16:26.623Z,7.35
2019-01-17T03:17:00.165Z,7.08
2019-01-17T03:17:33.658Z,7.08
2019-01-17T03:18:07.160Z,7.15
2019-01-17T03:18:40.651Z,7.00
2019-01-17T03:19:14.115Z,7.03
2019-01-17T03:19:47.611Z,6.35
2019-01-17T03:20:21.086Z,6.62
2019-01-17T03:20:54.638Z,6.70
2019-01-17T03:21:28.195Z,6.65
2019-01-17T03:22:01.769Z,7.55
2019-01-17T03:22:35.332Z,7.30
2019-01-17T03:23:08.810Z,7.00
2019-01-17T03:23:42.301Z,6.85
2019-01-17T03:24:15.763Z,6.45
2019-01-17T03:24:49.336Z,7.78
2019-01-17T03:25:22.827Z,6.92
2019-01-17T03:25:56.375Z,6.37
2019-01-17T03:26:29.852Z,6.80
2019-01-17T03:27:03.343Z,6.40
2019-01-17T03:27:37.028Z,6.45
2019-01-17T03:28:10.573Z,6.97
2019-01-17T03:28:44.023Z,7.10
2019-01-17T03:29:17.449Z,7.15
2019-01-17T03:29:50.956Z,6.67
2019-01-17T03:30:24.461Z,6.85
2019-01-17T03:30:58.021Z,7.17
2019-01-17T03:31:31.527Z,6.55
2019-01-17T03:32:05.062Z,7.50
2019-01-17T03:32:38.585Z,7.30
2019-01-17T03:33:11.976Z,7.03
2019-01-17T03:33:45.486Z,7.00
2019-01-17T03:34:19.026Z,7.28
2019-01-17T03:34:52.514Z,6.75
2019-01-17T03:35:26.079Z,6.62
2019-01-17T03:35:59.589Z,8.68
2019-01-17T03:36:33.139Z,7.10
2019-01-17T03:37:06.646Z,6.60
2019-01-17T03:37:40.211Z,6.40
2019-01-17T03:38:13.715Z,7.83
2019-01-17T03:38:47.258Z,8.45
2019-01-17T03:39:20.684Z,8.60
2019-01-17T03:39:54.297Z,6.90
2019-01-17T03:40:27.835Z,8.28
2019-01-17T03:41:01.258Z,7.67
2019-01-17T03:41:34.816Z,6.42
2019-01-17T03:42:08.403Z,7.03
2019-01-17T03:42:41.937Z,7.12
2019-01-17T03:43:15.512Z,7.15
2019-01-17T03:43:49.211Z,6.78
2019-01-17T03:44:22.777Z,6.72
2019-01-17T03:44:56.210Z,7.92
2019-01-17T03:45:29.785Z,6.55
2019-01-17T03:46:03.342Z,7.20
2019-01-17T03:46:36.911Z,7.17
2019-01-17T03:47:10.470Z,6.95
2019-01-17T03:47:44.174Z,7.72
2019-01-17T03:48:17.736Z,7.75
2019-01-17T03:48:51.265Z,7.58
2019-01-17T03:49:24.734Z,7.85
2019-01-17T03:49:58.683Z,7.03
2019-01-17T03:50:32.162Z,6.67
2019-01-17T03:51:05.757Z,6.53
2019-01-17T03:51:39.250Z,7.62
2019-01-17T03:52:12.729Z,7.00
2019-01-17T03:52:46.424Z,7.40
2019-01-17T03:53:19.901Z,7.45
2019-01-17T03:53:53.381Z,7.30
2019-01-17T03:54:26.863Z,6.80
2019-01-17T03:55:00.430Z,7.10
2019-01-17T03:55:34.229Z,7.17
2019-01-17T03:56:07.708Z,7.85
2019-01-17T03:56:41.173Z,7.80
2019-01-17T03:57:14.656Z,7.25
2019-01-17T03:57:48.149Z,7.03
2019-01-17T03:58:21.609Z,7.28
2019-01-17T03:58:55.096Z,7.80
2019-01-17T03:59:28.587Z,7.45
2019-01-17T04:00:02.147Z,8.18
2019-01-17T04:00:35.698Z,7.67
2019-01-17T04:01:09.198Z,7.17
2019-01-17T04:01:42.764Z,6.95
2019-01-17T04:02:16.344Z,7.05
2019-01-17T04:02:49.862Z,7.15
2019-01-17T04:03:23.297Z,7.87
2019-01-17T04:03:56.773Z,7.47
2019-01-17T04:04:30.241Z,7.35
2019-01-17T04:05:03.923Z,7.47
2019-01-17T04:05:37.415Z,7.33
2019-01-17T04:06:10.933Z,7.30
2019-01-17T04:06:44.415Z,7.30
2019-01-17T04:07:17.957Z,6.90
2019-01-17T04:07:51.518Z,7.53
2019-01-17T04:08:25.006Z,7.00
2019-01-17T04:08:58.406Z,7.40
2019-01-17T04:09:31.984Z,6.47
2019-01-17T04:10:06.000Z,8.00
2019-01-17T04:10:39.488Z,7.08
2019-01-17T04:11:13.025Z,7.97
2019-01-17T04:11:46.569Z,7.10
2019-01-17T04:12:20.029Z,7.35
2019-01-17T04:12:53.513Z,7.40
2019-01-17T04:13:27.180Z,7.20
2019-01-17T04:14:00.729Z,7.12
2019-01-17T04:14:34.214Z,8.13
2019-01-17T04:15:08.203Z,7.12
2019-01-17T04:15:41.711Z,7.78
2019-01-17T04:16:15.267Z,6.90
2019-01-17T04:16:48.762Z,6.62
2019-01-17T04:17:22.180Z,7.40
2019-01-17T04:17:55.936Z,7.62
2019-01-17T04:18:29.405Z,8.13
2019-01-17T04:19:02.916Z,7.78
2019-01-17T04:20:21.001Z,7.15
2019-01-17T04:20:54.587Z,7.47
2019-01-17T04:21:28.057Z,7.33
2019-01-17T04:22:01.571Z,6.90
2019-01-17T04:22:35.403Z,6.75
2019-01-17T04:23:08.801Z,7.55
2019-01-17T04:24:01.468Z,7.80
2019-01-17T04:24:35.014Z,7.15
2019-01-17T04:25:08.775Z,6.58
2019-01-17T04:25:42.249Z,6.62
2019-01-17T04:26:15.750Z,6.67
2019-01-17T04:26:49.230Z,6.85
2019-01-17T04:27:41.952Z,6.97
2019-01-17T04:28:15.493Z,6.85
2019-01-17T04:28:49.055Z,7.12
2019-01-17T04:29:22.535Z,7.28
2019-01-17T04:30:15.235Z,7.53
2019-01-17T04:30:48.717Z,6.72
2019-01-17T04:31:22.241Z,6.60
2019-01-17T04:31:55.708Z,8.15
2019-01-17T04:32:29.210Z,7.30
2019-01-17T04:33:21.846Z,6.55
2019-01-17T04:33:55.275Z,7.10
2019-01-17T04:34:28.816Z,6.25
2019-01-17T04:35:02.351Z,6.50
2019-01-17T04:35:35.872Z,6.65
2019-01-17T04:36:09.384Z,7.10
2019-01-17T04:36:42.860Z,7.12
2019-01-17T04:37:16.359Z,7.28
2019-01-17T04:37:49.844Z,7.05
2019-01-17T04:38:23.313Z,7.60
2019-01-17T04:38:56.764Z,6.70
2019-01-17T04:39:30.273Z,6.80
2019-01-17T04:40:04.188Z,7.08
2019-01-17T04:40:37.716Z,6.65
2019-01-17T04:41:11.248Z,7.22
2019-01-17T04:41:44.826Z,6.12
2019-01-17T04:42:18.273Z,7.35
2019-01-17T04:42:52.737Z,8.25
2019-01-17T04:43:26.259Z,7.15
2019-01-17T04:43:59.810Z,7.47
2019-01-17T04:44:33.376Z,6.80
2019-01-17T04:45:07.257Z,7.53
2019-01-17T04:45:40.875Z,6.90
2019-01-17T04:46:14.434Z,6.70
2019-01-17T04:46:48.071Z,6.58
2019-01-17T04:47:21.732Z,7.80
2019-01-17T04:47:55.278Z,7.28
2019-01-17T04:48:28.985Z,7.45
2019-01-17T04:49:02.572Z,6.47
2019-01-17T04:49:36.130Z,6.92
2019-01-17T04:50:10.346Z,8.03
2019-01-17T04:50:43.971Z,6.97
2019-01-17T04:51:17.450Z,6.35
2019-01-17T04:51:50.887Z,7.70
2019-01-17T04:52:24.458Z,6.55
2019-01-17T04:52:57.917Z,7.33
2019-01-17T04:53:31.522Z,7.20
2019-01-17T04:54:05.072Z,7.00
2019-01-17T04:54:38.697Z,6.55
2019-01-17T04:55:13.162Z,6.60
2019-01-17T04:55:46.863Z,6.08
2019-01-17T04:56:20.324Z,6.60
2019-01-17T04:56:53.811Z,6.72
2019-01-17T04:57:27.280Z,6.17
2019-01-17T04:58:00.967Z,7.45
2019-01-17T04:58:34.582Z,6.35
2019-01-17T04:59:08.068Z,6.80
2019-01-17T04:59:41.660Z,6.50
2019-01-17T05:00:16.564Z,6.90
2019-01-17T05:00:50.228Z,6.60
2019-01-17T05:01:23.749Z,6.55
2019-01-17T05:01:57.279Z,6.37
2019-01-17T05:02:30.790Z,6.75
2019-01-17T05:03:04.516Z,6.20
2019-01-17T05:03:38.079Z,6.35
2019-01-17T05:04:11.545Z,6.90
2019-01-17T05:04:45.033Z,7.30
2019-01-17T05:05:18.801Z,6.08
2019-01-17T05:05:52.282Z,8.03
2019-01-17T05:06:25.790Z,6.95
2019-01-17T05:06:59.351Z,6.40
2019-01-17T05:07:32.841Z,6.62
2019-01-17T05:08:06.319Z,6.58
2019-01-17T05:08:39.813Z,6.03
2019-01-17T05:09:13.392Z,7.60
2019-01-17T05:09:46.893Z,6.58
2019-01-17T05:10:20.422Z,7.30
2019-01-17T05:10:53.923Z,6.17
2019-01-17T05:11:27.440Z,5.25
2019-01-17T05:12:00.998Z,6.22
2019-01-17T05:12:34.492Z,6.47
2019-01-17T05:13:07.893Z,5.90
2019-01-17T05:13:41.494Z,6.92
2019-01-17T05:14:15.199Z,6.78
2019-01-17T05:14:48.633Z,6.50
2019-01-17T05:15:22.197Z,6.05
2019-01-17T05:15:55.733Z,7.00
2019-01-17T05:16:29.329Z,7.20
2019-01-17T05:17:02.917Z,7.25
2019-01-17T05:17:36.447Z,6.25
2019-01-17T05:18:11.427Z,6.25
2019-01-17T05:18:44.924Z,6.62
2019-01-17T05:19:18.344Z,5.45
2019-01-17T05:19:51.836Z,6.28
2019-01-17T05:20:25.299Z,6.35
2019-01-17T05:20:58.840Z,6.28
2019-01-17T05:21:32.363Z,6.12
2019-01-17T05:22:05.825Z,6.83
2019-01-17T05:22:39.295Z,7.33
2019-01-17T05:23:12.768Z,6.15
2019-01-17T05:23:46.210Z,7.30
2019-01-17T05:24:19.613Z,6.17
2019-01-17T05:24:53.298Z,5.90
2019-01-17T05:25:26.841Z,6.78
2019-01-17T05:26:00.425Z,6.12
2019-01-17T05:26:33.860Z,6.83
2019-01-17T05:27:07.368Z,6.15
2019-01-17T05:27:40.887Z,6.05
2019-01-17T05:28:14.447Z,5.90
2019-01-17T05:28:48.040Z,6.20
2019-01-17T05:29:21.685Z,5.85
2019-01-17T05:29:55.229Z,6.35
2019-01-17T05:30:28.779Z,6.60
2019-01-17T05:31:02.464Z,6.20
2019-01-17T05:31:36.082Z,5.33
2019-01-17T05:32:09.641Z,6.40
2019-01-17T05:32:43.197Z,5.97
2019-01-17T05:33:16.681Z,6.33
2019-01-17T05:33:50.212Z,6.53
2019-01-17T05:34:23.676Z,5.92
2019-01-17T05:34:57.132Z,5.60
2019-01-17T05:35:30.615Z,6.22
2019-01-17T05:36:04.420Z,5.83
2019-01-17T05:36:37.904Z,5.87
2019-01-17T05:37:11.413Z,6.33
2019-01-17T05:37:44.969Z,5.60
2019-01-17T05:38:18.433Z,6.70
2019-01-17T05:38:51.941Z,5.70
2019-01-17T05:39:25.466Z,5.33
2019-01-17T05:39:58.893Z,5.83
2019-01-17T05:40:32.277Z,6.03
2019-01-17T05:41:05.840Z,5.78
2019-01-17T05:41:39.277Z,6.08
2019-01-17T05:42:12.687Z,5.47
2019-01-17T05:42:46.220Z,6.47
2019-01-17T05:43:19.681Z,6.12
2019-01-17T05:43:53.159Z,6.22
2019-01-17T05:44:26.605Z,6.45
2019-01-17T05:45:00.237Z,5.95
2019-01-17T05:45:33.679Z,5.33
2019-01-17T05:46:07.254Z,6.30
2019-01-17T05:46:40.733Z,5.90
2019-01-17T05:47:14.217Z,4.90
2019-01-17T05:47:47.759Z,4.95
2019-01-17T05:48:21.182Z,5.17
2019-01-17T05:48:54.660Z,5.33
2019-01-17T05:49:28.079Z,4.90
2019-01-17T05:50:01.531Z,5.35
2019-01-17T05:50:35.025Z,5.25
2019-01-17T05:51:08.430Z,5.40
2019-01-17T05:51:42.027Z,5.62
2019-01-17T05:52:15.497Z,6.05
2019-01-17T05:52:49.193Z,5.40
2019-01-17T05:53:22.733Z,5.22
2019-01-17T05:53:56.126Z,5.12
2019-01-17T05:54:29.605Z,5.40
2019-01-17T05:55:03.171Z,5.53
2019-01-17T05:55:36.792Z,5.67
2019-01-17T05:56:10.261Z,4.95
2019-01-17T05:56:43.682Z,5.70
2019-01-17T05:57:17.180Z,5.30
2019-01-17T05:57:50.920Z,5.80
2019-01-17T05:58:24.311Z,5.08
2019-01-17T05:58:57.807Z,5.22
2019-01-17T05:59:31.598Z,4.67
2019-01-17T06:00:06.661Z,4.85
2019-01-17T06:00:40.201Z,5.20
2019-01-17T06:01:13.914Z,5.35
2019-01-17T06:01:47.341Z,4.95
2019-01-17T06:02:20.875Z,5.58
2019-01-17T06:02:54.468Z,5.53
2019-01-17T06:03:27.903Z,5.03
2019-01-17T06:04:01.453Z,5.10
2019-01-17T06:04:34.941Z,5.50
2019-01-17T06:05:08.554Z,5.20
2019-01-17T06:05:42.087Z,5.15
2019-01-17T06:06:15.503Z,5.10
2019-01-17T06:06:49.011Z,5.83
2019-01-17T06:07:22.811Z,5.40
2019-01-17T06:07:56.269Z,4.95
2019-01-17T06:08:29.786Z,5.25
2019-01-17T06:09:04.645Z,5.08
2019-01-17T06:09:38.193Z,5.33
2019-01-17T06:10:12.040Z,5.85
2019-01-17T06:10:45.533Z,4.47
2019-01-17T06:11:19.207Z,4.65
2019-01-17T06:11:52.666Z,5.37
2019-01-17T06:12:26.141Z,4.72
2019-01-17T06:12:59.724Z,5.42
2019-01-17T06:13:33.216Z,5.45
2019-01-17T06:14:06.732Z,5.42
2019-01-17T06:14:40.246Z,5.45
2019-01-17T06:15:15.849Z,5.17
2019-01-17T06:16:08.569Z,5.70
2019-01-17T06:16:42.053Z,5.08
2019-01-17T06:17:15.665Z,4.80
2019-01-17T06:17:49.232Z,5.78
2019-01-17T06:18:41.920Z,5.22
2019-01-17T06:19:15.544Z,4.55
2019-01-17T06:19:49.069Z,4.80
2019-01-17T06:20:22.552Z,5.90
2019-01-17T06:20:55.965Z,5.45
2019-01-17T06:21:29.451Z,4.40
2019-01-17T06:22:03.008Z,5.05
2019-01-17T06:22:36.468Z,4.70
2019-01-17T06:23:09.959Z,5.00
2019-01-17T06:24:02.634Z,5.08
2019-01-17T06:24:36.225Z,4.80
2019-01-17T06:25:09.808Z,4.75
2019-01-17T06:25:43.369Z,5.22
2019-01-17T06:26:17.009Z,5.05
2019-01-17T06:26:50.535Z,4.75
2019-01-17T06:27:23.963Z,4.85
2019-01-17T06:27:57.419Z,4.58
2019-01-17T06:28:30.827Z,5.78
2019-01-17T06:29:04.320Z,4.22
2019-01-17T06:29:37.784Z,5.12
2019-01-17T06:30:11.996Z,5.95
2019-01-17T06:30:45.473Z,4.90
2019-01-17T06:31:18.939Z,4.92
2019-01-17T06:31:52.500Z,4.97
2019-01-17T06:32:25.963Z,4.85
2019-01-17T06:32:59.422Z,5.00
2019-01-17T06:33:32.911Z,5.12
2019-01-17T06:34:06.313Z,4.67
2019-01-17T06:34:39.843Z,4.78
2019-01-17T06:35:13.457Z,5.40
2019-01-17T06:35:46.981Z,5.37
2019-01-17T06:36:20.369Z,4.10
2019-01-17T06:36:54.655Z,4.60
2019-01-17T06:37:28.120Z,5.03
2019-01-17T06:38:01.636Z,5.35
2019-01-17T06:38:35.124Z,5.05
2019-01-17T06:39:09.073Z,4.70
2019-01-17T06:39:42.618Z,5.10
2019-01-17T06:40:17.697Z,4.70
2019-01-17T06:40:51.211Z,4.78
2019-01-17T06:41:24.760Z,4.42
2019-01-17T06:41:58.270Z,4.62
2019-01-17T06:42:31.760Z,5.03
2019-01-17T06:43:05.220Z,4.75
2019-01-17T06:43:38.714Z,4.95
2019-01-17T06:44:12.146Z,5.40
2019-01-17T06:44:45.703Z,4.90
2019-01-17T06:45:19.165Z,5.35
2019-01-17T06:45:52.677Z,5.33
2019-01-17T06:46:26.128Z,4.35
2019-01-17T06:46:59.685Z,4.80
2019-01-17T06:47:33.245Z,4.60
2019-01-17T06:48:06.740Z,5.30
2019-01-17T06:48:40.308Z,4.65
2019-01-17T06:49:13.710Z,4.72
2019-01-17T06:49:47.181Z,4.95
2019-01-17T06:50:20.673Z,5.30
2019-01-17T06:50:54.165Z,4.30
2019-01-17T06:51:27.653Z,4.60
2019-01-17T06:52:01.089Z,4.47
2019-01-17T06:52:34.590Z,5.17
2019-01-17T06:53:08.075Z,4.60
2019-01-17T06:53:41.525Z,5.22
2019-01-17T06:54:14.945Z,4.30
2019-01-17T06:54:48.438Z,5.08
2019-01-17T06:55:21.956Z,5.08
2019-01-17T06:55:55.487Z,5.00
2019-01-17T06:56:28.926Z,4.85
2019-01-17T06:57:02.429Z,4.95
2019-01-17T06:57:35.921Z,5.00
2019-01-17T06:58:09.434Z,5.58
2019-01-17T06:58:42.932Z,5.00
2019-01-17T06:59:16.450Z,4.60
2019-01-17T06:59:50.013Z,4.78
2019-01-17T07:00:23.519Z,4.60
2019-01-17T07:00:56.918Z,5.28
2019-01-17T07:01:30.509Z,5.22
2019-01-17T07:02:04.203Z,4.25
2019-01-17T07:02:37.695Z,4.70
2019-01-17T07:03:11.238Z,5.10
2019-01-17T07:03:44.692Z,4.58
2019-01-17T07:04:18.246Z,5.28
2019-01-17T07:04:51.668Z,4.92
2019-01-17T07:05:25.122Z,4.65
2019-01-17T07:05:58.580Z,4.42
2019-01-17T07:06:32.209Z,4.25
2019-01-17T07:07:05.828Z,4.50
2019-01-17T07:07:39.389Z,4.45
2019-01-17T07:08:12.856Z,4.30
2019-01-17T07:08:46.344Z,4.15
2019-01-17T07:09:19.842Z,4.70
2019-01-17T07:09:53.305Z,5.30
2019-01-17T07:10:26.857Z,4.30
2019-01-17T07:11:00.356Z,5.55
2019-01-17T07:11:33.877Z,4.72
2019-01-17T07:12:07.384Z,4.40
2019-01-17T07:12:40.856Z,5.50
2019-01-17T07:13:14.558Z,4.80
2019-01-17T07:13:48.031Z,4.67
2019-01-17T07:14:21.520Z,4.72
2019-01-17T07:14:54.957Z,4.37
2019-01-17T07:15:28.443Z,4.70
2019-01-17T07:16:01.925Z,4.22
2019-01-17T07:16:35.507Z,4.60
2019-01-17T07:17:08.993Z,4.65
2019-01-17T07:17:42.523Z,4.62
2019-01-17T07:18:16.026Z,5.37
2019-01-17T07:18:49.526Z,4.25
2019-01-17T07:19:23.073Z,4.80
2019-01-17T07:19:56.543Z,4.60
2019-01-17T07:20:30.069Z,4.83
2019-01-17T07:21:03.609Z,4.75
2019-01-17T07:21:37.079Z,5.33
2019-01-17T07:22:10.514Z,4.65
2019-01-17T07:22:44.155Z,5.03
2019-01-17T07:23:17.649Z,4.60
2019-01-17T07:23:51.156Z,5.03
2019-01-17T07:24:24.837Z,4.12
2019-01-17T07:24:58.337Z,4.42
2019-01-17T07:25:31.747Z,4.97
2019-01-17T07:26:05.646Z,4.35
2019-01-17T07:26:39.190Z,5.10
2019-01-17T07:27:12.762Z,4.62
2019-01-17T07:27:46.263Z,5.17
2019-01-17T07:28:19.856Z,4.62
2019-01-17T07:28:53.436Z,4.45
2019-01-17T07:29:26.903Z,4.42
2019-01-17T07:30:00.509Z,4.37
2019-01-17T07:30:34.149Z,4.30
2019-01-17T07:31:07.652Z,4.65
2019-01-17T07:31:41.217Z,4.37
2019-01-17T07:32:14.689Z,4.80
2019-01-17T07:32:48.152Z,4.87
2019-01-17T07:33:21.641Z,5.50
2019-01-17T07:33:55.129Z,4.72
2019-01-17T07:34:28.568Z,5.50
2019-01-17T07:35:02.051Z,4.50
2019-01-17T07:35:35.549Z,4.60
2019-01-17T07:36:09.146Z,4.87
2019-01-17T07:36:42.834Z,4.12
2019-01-17T07:37:16.340Z,5.00
2019-01-17T07:37:50.253Z,4.72
2019-01-17T07:38:23.773Z,5.28
2019-01-17T07:38:57.311Z,4.40
2019-01-17T07:39:30.822Z,4.17
2019-01-17T07:40:04.980Z,4.30
2019-01-17T07:40:38.688Z,4.80
2019-01-17T07:41:12.116Z,4.72
2019-01-17T07:41:45.608Z,4.60
2019-01-17T07:42:19.121Z,4.30
2019-01-17T07:42:52.680Z,4.25
2019-01-17T07:43:26.184Z,4.35
2019-01-17T07:43:59.682Z,4.42
2019-01-17T07:44:33.349Z,4.30
2019-01-17T07:45:08.397Z,4.45
2019-01-17T07:45:41.897Z,3.95
2019-01-17T07:46:15.535Z,4.08
2019-01-17T07:46:49.323Z,4.20
2019-01-17T07:47:22.830Z,4.60
2019-01-17T07:47:56.351Z,4.45
2019-01-17T07:48:29.853Z,4.20
2019-01-17T07:49:03.382Z,5.10
2019-01-17T07:49:36.876Z,4.47
2019-01-17T07:50:10.608Z,4.20
2019-01-17T07:50:44.210Z,4.25
2019-01-17T07:51:17.917Z,4.30
2019-01-17T07:51:51.408Z,3.95
2019-01-17T07:52:24.851Z,4.40
2019-01-17T07:52:58.410Z,4.33
2019-01-17T07:53:31.873Z,3.98
2019-01-17T07:54:05.403Z,4.35
2019-01-17T07:54:38.961Z,5.12
2019-01-17T07:55:12.570Z,4.55
2019-01-17T07:55:47.690Z,4.50
2019-01-17T07:56:21.504Z,4.20
2019-01-17T07:56:54.985Z,3.83
2019-01-17T07:57:28.472Z,4.45
2019-01-17T07:58:02.168Z,4.37
2019-01-17T07:58:35.768Z,4.00
2019-01-17T07:59:09.172Z,3.60
2019-01-17T07:59:42.876Z,3.87
2019-01-17T08:00:17.453Z,4.58
2019-01-17T08:00:51.023Z,4.20
2019-01-17T08:01:24.564Z,4.17
2019-01-17T08:01:58.136Z,4.15
2019-01-17T08:02:31.737Z,3.85
2019-01-17T08:03:11.102Z,3.90
2019-01-17T08:03:44.535Z,3.77
2019-01-17T08:04:18.051Z,4.00
2019-01-17T08:05:10.688Z,4.33
2019-01-17T08:05:44.204Z,3.52
2019-01-17T08:06:17.904Z,3.70
2019-01-17T08:06:56.736Z,4.20
2019-01-17T08:07:26.744Z,4.70
2019-01-17T08:08:06.084Z,3.75
2019-01-17T08:08:58.708Z,4.05
2019-01-17T08:09:32.153Z,3.85
2019-01-17T08:10:06.449Z,3.85
2019-01-17T08:10:39.945Z,4.10
2019-01-17T08:11:13.691Z,4.15
2019-01-17T08:12:06.370Z,4.08
2019-01-17T08:12:43.379Z,4.28
2019-01-17T08:13:35.993Z,4.55
2019-01-17T08:14:09.502Z,4.20
2019-01-17T08:14:42.989Z,4.00